PWSweather.com
Personal Weather Stations
Station Observations
WXGLH1124
Southern Oaks, Indianapolis, IN 46217

Southern OaksIndianapolis, IN 46217

Lat: 39.65113, Lon: -86.16866

Elevation: 720

Station Type: Vantage Pro2

High Low Average
Temperature 54.9°F12.7°C 33.5°F0.8°C 44.4°F6.9°C
Dew Point 46.1°F7.8°C 25.5°F-3.6°C 34.7°F1.5°C
Winds 21.0 mph 33.8 kmh Calm Calm 5.0 mph S8.0 kmh S
Wind Gusts 23.0 mph37.0 kmh 2.0 mph3.2 kmh 9.0 mph14.5 kmh
Humidity 81% 54% 69%
Pressure 30.05 in1017.6 mb 29.62 in1003.0 mb -
Precipitation 0.00 in0.0 mm - -
Hour Temp Dew Point Humidity Winds Wind Gusts Pressure Precip Precip Rate Daily Precip Total
12:04 AM 32.9°F0.5°C 24.9°F-3.9°C 72% Calm Calm 3.0 mph4.8 kmh 30.07 in1018.3 mb 0.00 in0.0 mm 0.00 in0.0 mm 0.00 in0.0 mm
12:10 AM 32.9°F0.5°C 24.9°F-3.9°C 72% Calm Calm -- 30.07 in1018.3 mb 0.00 in0.0 mm 0.00 in0.0 mm 0.00 in0.0 mm
12:15 AM 32.9°F0.5°C 24.9°F-3.9°C 72% Calm Calm 2.0 mph3.2 kmh 30.07 in1018.3 mb 0.00 in0.0 mm 0.00 in0.0 mm 0.00 in0.0 mm
12:20 AM 32.9°F0.5°C 24.9°F-3.9°C 72% 1.0 mph SW1.6 kmh SW 1.0 mph1.6 kmh 30.06 in1017.9 mb 0.00 in0.0 mm 0.00 in0.0 mm 0.00 in0.0 mm
12:25 AM 33.0°F0.6°C 25.0°F-3.9°C 72% Calm Calm 5.0 mph8.0 kmh 30.06 in1017.9 mb 0.00 in0.0 mm 0.00 in0.0 mm 0.00 in0.0 mm
12:29 AM 33.0°F0.6°C 25.0°F-3.9°C 72% Calm Calm -- 30.06 in1017.9 mb 0.00 in0.0 mm 0.00 in0.0 mm 0.00 in0.0 mm
12:34 AM 33.0°F0.6°C 25.3°F-3.7°C 73% Calm Calm 1.0 mph1.6 kmh 30.06 in1017.9 mb 0.00 in0.0 mm 0.00 in0.0 mm 0.00 in0.0 mm
12:40 AM 33.0°F0.6°C 25.3°F-3.7°C 73% Calm Calm 2.0 mph3.2 kmh 30.05 in1017.6 mb 0.00 in0.0 mm 0.00 in0.0 mm 0.00 in0.0 mm
12:45 AM 33.0°F0.6°C 25.6°F-3.6°C 74% 1.0 mph SW1.6 kmh SW 2.0 mph3.2 kmh 30.05 in1017.6 mb 0.00 in0.0 mm 0.00 in0.0 mm 0.00 in0.0 mm
12:50 AM 33.0°F0.6°C 25.6°F-3.6°C 74% 1.0 mph SW1.6 kmh SW 3.0 mph4.8 kmh 30.05 in1017.6 mb 0.00 in0.0 mm 0.00 in0.0 mm 0.00 in0.0 mm
12:55 AM 33.3°F0.7°C 25.6°F-3.6°C 73% 3.0 mph SW4.8 kmh SW 3.0 mph4.8 kmh 30.04 in1017.3 mb 0.00 in0.0 mm 0.00 in0.0 mm 0.00 in0.0 mm
01:00 AM 33.5°F0.8°C 25.8°F-3.4°C 73% 3.0 mph S4.8 kmh S 5.0 mph8.0 kmh 30.05 in1017.6 mb 0.00 in0.0 mm 0.00 in0.0 mm 0.00 in0.0 mm
01:05 AM 33.7°F0.9°C 25.7°F-3.5°C 72% 3.0 mph S4.8 kmh S 4.0 mph6.4 kmh 30.05 in1017.6 mb 0.00 in0.0 mm 0.00 in0.0 mm 0.00 in0.0 mm
01:10 AM 33.9°F1.1°C 25.5°F-3.6°C 71% 1.0 mph S1.6 kmh S 4.0 mph6.4 kmh 30.05 in1017.6 mb 0.00 in0.0 mm 0.00 in0.0 mm 0.00 in0.0 mm
01:14 AM 34.0°F1.1°C 25.6°F-3.6°C 71% Calm Calm 6.0 mph9.7 kmh 30.04 in1017.3 mb 0.00 in0.0 mm 0.00 in0.0 mm 0.00 in0.0 mm
01:20 AM 34.1°F1.2°C 25.7°F-3.5°C 71% 3.0 mph SSE4.8 kmh SSE 6.0 mph9.7 kmh 30.04 in1017.3 mb 0.00 in0.0 mm 0.00 in0.0 mm 0.00 in0.0 mm
01:25 AM 34.2°F1.2°C 25.8°F-3.4°C 71% 1.0 mph S1.6 kmh S 6.0 mph9.7 kmh 30.04 in1017.3 mb 0.00 in0.0 mm 0.00 in0.0 mm 0.00 in0.0 mm
01:30 AM 34.4°F1.3°C 26.0°F-3.3°C 71% 2.0 mph S3.2 kmh S 6.0 mph9.7 kmh 30.04 in1017.3 mb 0.00 in0.0 mm 0.00 in0.0 mm 0.00 in0.0 mm
01:35 AM 34.5°F1.4°C 26.1°F-3.3°C 71% Calm Calm 4.0 mph6.4 kmh 30.05 in1017.6 mb 0.00 in0.0 mm 0.00 in0.0 mm 0.00 in0.0 mm
01:40 AM 34.6°F1.4°C 26.2°F-3.2°C 71% 2.0 mph S3.2 kmh S 5.0 mph8.0 kmh 30.05 in1017.6 mb 0.00 in0.0 mm 0.00 in0.0 mm 0.00 in0.0 mm
01:45 AM 34.6°F1.4°C 26.2°F-3.2°C 71% 3.0 mph S4.8 kmh S 5.0 mph8.0 kmh 30.04 in1017.3 mb 0.00 in0.0 mm 0.00 in0.0 mm 0.00 in0.0 mm
01:49 AM 34.7°F1.5°C 25.9°F-3.4°C 70% 3.0 mph SSE4.8 kmh SSE 6.0 mph9.7 kmh 30.04 in1017.3 mb 0.00 in0.0 mm 0.00 in0.0 mm 0.00 in0.0 mm
01:55 AM 34.7°F1.5°C 25.9°F-3.4°C 70% 3.0 mph S4.8 kmh S 7.0 mph11.3 kmh 30.04 in1017.3 mb 0.00 in0.0 mm 0.00 in0.0 mm 0.00 in0.0 mm
01:59 AM 34.9°F1.6°C 26.1°F-3.3°C 70% 4.0 mph SSE6.4 kmh SSE 6.0 mph9.7 kmh 30.04 in1017.3 mb 0.00 in0.0 mm 0.00 in0.0 mm 0.00 in0.0 mm
02:05 AM 35.0°F1.7°C 26.2°F-3.2°C 70% 1.0 mph SSE1.6 kmh SSE 5.0 mph8.0 kmh 30.04 in1017.3 mb 0.00 in0.0 mm 0.00 in0.0 mm 0.00 in0.0 mm
02:10 AM 35.0°F1.7°C 26.2°F-3.2°C 70% 4.0 mph S6.4 kmh S 4.0 mph6.4 kmh 30.04 in1017.3 mb 0.00 in0.0 mm 0.00 in0.0 mm 0.00 in0.0 mm
02:15 AM 35.1°F1.7°C 26.3°F-3.2°C 70% 2.0 mph S3.2 kmh S 6.0 mph9.7 kmh 30.03 in1016.9 mb 0.00 in0.0 mm 0.00 in0.0 mm 0.00 in0.0 mm
02:20 AM 35.1°F1.7°C 26.3°F-3.2°C 70% 2.0 mph S3.2 kmh S 6.0 mph9.7 kmh 30.03 in1016.9 mb 0.00 in0.0 mm 0.00 in0.0 mm 0.00 in0.0 mm
02:25 AM 35.2°F1.8°C 26.4°F-3.1°C 70% 2.0 mph S3.2 kmh S 6.0 mph9.7 kmh 30.03 in1016.9 mb 0.00 in0.0 mm 0.00 in0.0 mm 0.00 in0.0 mm
02:30 AM 35.2°F1.8°C 26.4°F-3.1°C 70% 3.0 mph S4.8 kmh S 6.0 mph9.7 kmh 30.03 in1016.9 mb 0.00 in0.0 mm 0.00 in0.0 mm 0.00 in0.0 mm
02:34 AM 35.2°F1.8°C 26.4°F-3.1°C 70% 3.0 mph SE4.8 kmh SE 5.0 mph8.0 kmh 30.02 in1016.6 mb 0.00 in0.0 mm 0.00 in0.0 mm 0.00 in0.0 mm
02:39 AM 35.2°F1.8°C 26.4°F-3.1°C 70% 2.0 mph S3.2 kmh S 6.0 mph9.7 kmh 30.02 in1016.6 mb 0.00 in0.0 mm 0.00 in0.0 mm 0.00 in0.0 mm
02:45 AM 35.2°F1.8°C 26.4°F-3.1°C 70% 2.0 mph S3.2 kmh S 7.0 mph11.3 kmh 30.02 in1016.6 mb 0.00 in0.0 mm 0.00 in0.0 mm 0.00 in0.0 mm
02:50 AM 35.0°F1.7°C 26.6°F-3.0°C 71% 1.0 mph SSE1.6 kmh SSE 4.0 mph6.4 kmh 30.02 in1016.6 mb 0.00 in0.0 mm 0.00 in0.0 mm 0.00 in0.0 mm
02:55 AM 34.9°F1.6°C 26.5°F-3.1°C 71% 2.0 mph S3.2 kmh S 6.0 mph9.7 kmh 30.02 in1016.6 mb 0.00 in0.0 mm 0.00 in0.0 mm 0.00 in0.0 mm
03:00 AM 34.7°F1.5°C 26.6°F-3.0°C 72% 4.0 mph SE6.4 kmh SE 5.0 mph8.0 kmh 30.02 in1016.6 mb 0.00 in0.0 mm 0.00 in0.0 mm 0.00 in0.0 mm
03:05 AM 34.7°F1.5°C 26.6°F-3.0°C 72% 2.0 mph SSE3.2 kmh SSE 4.0 mph6.4 kmh 30.02 in1016.6 mb 0.00 in0.0 mm 0.00 in0.0 mm 0.00 in0.0 mm
03:09 AM 34.6°F1.4°C 26.5°F-3.1°C 72% 1.0 mph SSE1.6 kmh SSE 5.0 mph8.0 kmh 30.02 in1016.6 mb 0.00 in0.0 mm 0.00 in0.0 mm 0.00 in0.0 mm
03:15 AM 34.6°F1.4°C 26.5°F-3.1°C 72% Calm Calm 3.0 mph4.8 kmh 30.01 in1016.3 mb 0.00 in0.0 mm 0.00 in0.0 mm 0.00 in0.0 mm
03:20 AM 34.5°F1.4°C 26.8°F-2.9°C 73% 3.0 mph SE4.8 kmh SE 4.0 mph6.4 kmh 30.01 in1016.3 mb 0.00 in0.0 mm 0.00 in0.0 mm 0.00 in0.0 mm
03:25 AM 34.5°F1.4°C 26.8°F-2.9°C 73% Calm Calm 5.0 mph8.0 kmh 30.01 in1016.3 mb 0.00 in0.0 mm 0.00 in0.0 mm 0.00 in0.0 mm
03:30 AM 34.5°F1.4°C 26.8°F-2.9°C 73% 1.0 mph S1.6 kmh S 5.0 mph8.0 kmh 30.01 in1016.3 mb 0.00 in0.0 mm 0.00 in0.0 mm 0.00 in0.0 mm
03:35 AM 34.6°F1.4°C 26.9°F-2.8°C 73% Calm Calm 5.0 mph8.0 kmh 30.00 in1015.9 mb 0.00 in0.0 mm 0.00 in0.0 mm 0.00 in0.0 mm
03:40 AM 34.7°F1.5°C 27.0°F-2.8°C 73% 2.0 mph SSE3.2 kmh SSE 5.0 mph8.0 kmh 30.00 in1015.9 mb 0.00 in0.0 mm 0.00 in0.0 mm 0.00 in0.0 mm
03:45 AM 34.8°F1.6°C 27.0°F-2.8°C 73% 4.0 mph SSE6.4 kmh SSE 6.0 mph9.7 kmh 30.00 in1015.9 mb 0.00 in0.0 mm 0.00 in0.0 mm 0.00 in0.0 mm
03:50 AM 35.0°F1.7°C 26.9°F-2.8°C 72% 4.0 mph S6.4 kmh S 4.0 mph6.4 kmh 30.00 in1015.9 mb 0.00 in0.0 mm 0.00 in0.0 mm 0.00 in0.0 mm
03:55 AM 35.1°F1.7°C 27.0°F-2.8°C 72% 4.0 mph S6.4 kmh S 4.0 mph6.4 kmh 29.99 in1015.6 mb 0.00 in0.0 mm 0.00 in0.0 mm 0.00 in0.0 mm
04:00 AM 35.2°F1.8°C 27.1°F-2.7°C 72% 1.0 mph S1.6 kmh S 5.0 mph8.0 kmh 29.99 in1015.6 mb 0.00 in0.0 mm 0.00 in0.0 mm 0.00 in0.0 mm
04:05 AM 35.3°F1.8°C 27.2°F-2.7°C 72% 5.0 mph S8.0 kmh S 5.0 mph8.0 kmh 29.99 in1015.6 mb 0.00 in0.0 mm 0.00 in0.0 mm 0.00 in0.0 mm
04:09 AM 35.3°F1.8°C 27.2°F-2.7°C 72% 2.0 mph S3.2 kmh S 6.0 mph9.7 kmh 29.99 in1015.6 mb 0.00 in0.0 mm 0.00 in0.0 mm 0.00 in0.0 mm
04:14 AM 35.4°F1.9°C 27.3°F-2.6°C 72% 2.0 mph SSE3.2 kmh SSE 4.0 mph6.4 kmh 29.98 in1015.2 mb 0.00 in0.0 mm 0.00 in0.0 mm 0.00 in0.0 mm
04:19 AM 35.5°F1.9°C 27.4°F-2.6°C 72% 2.0 mph S3.2 kmh S 5.0 mph8.0 kmh 29.98 in1015.2 mb 0.00 in0.0 mm 0.00 in0.0 mm 0.00 in0.0 mm
04:25 AM 35.7°F2.1°C 27.6°F-2.4°C 72% 1.0 mph S1.6 kmh S 6.0 mph9.7 kmh 29.97 in1014.9 mb 0.00 in0.0 mm 0.00 in0.0 mm 0.00 in0.0 mm
04:30 AM 36.2°F2.3°C 27.7°F-2.4°C 71% 1.0 mph S1.6 kmh S 6.0 mph9.7 kmh 29.97 in1014.9 mb 0.00 in0.0 mm 0.00 in0.0 mm 0.00 in0.0 mm
04:35 AM 36.6°F2.6°C 27.8°F-2.3°C 70% 4.0 mph S6.4 kmh S 8.0 mph12.9 kmh 29.97 in1014.9 mb 0.00 in0.0 mm 0.00 in0.0 mm 0.00 in0.0 mm
04:39 AM 36.9°F2.7°C 28.0°F-2.2°C 70% 4.0 mph SSE6.4 kmh SSE 7.0 mph11.3 kmh 29.97 in1014.9 mb 0.00 in0.0 mm 0.00 in0.0 mm 0.00 in0.0 mm
04:45 AM 37.1°F2.8°C 27.9°F-2.3°C 69% 6.0 mph SSE9.7 kmh SSE 7.0 mph11.3 kmh 29.97 in1014.9 mb 0.00 in0.0 mm 0.00 in0.0 mm 0.00 in0.0 mm
04:50 AM 37.4°F3.0°C 28.2°F-2.1°C 69% 5.0 mph S8.0 kmh S 6.0 mph9.7 kmh 29.96 in1014.6 mb 0.00 in0.0 mm 0.00 in0.0 mm 0.00 in0.0 mm
04:55 AM 37.5°F3.1°C 28.3°F-2.1°C 69% 7.0 mph S11.3 kmh S 10.0 mph16.1 kmh 29.96 in1014.6 mb 0.00 in0.0 mm 0.00 in0.0 mm 0.00 in0.0 mm
05:00 AM 37.8°F3.2°C 28.2°F-2.1°C 68% 5.0 mph S8.0 kmh S 7.0 mph11.3 kmh 29.96 in1014.6 mb 0.00 in0.0 mm 0.00 in0.0 mm 0.00 in0.0 mm
05:05 AM 37.9°F3.3°C 28.3°F-2.1°C 68% 7.0 mph S11.3 kmh S 8.0 mph12.9 kmh 29.96 in1014.6 mb 0.00 in0.0 mm 0.00 in0.0 mm 0.00 in0.0 mm
05:10 AM 38.0°F3.3°C 28.4°F-2.0°C 68% 3.0 mph SSE4.8 kmh SSE 6.0 mph9.7 kmh 29.96 in1014.6 mb 0.00 in0.0 mm 0.00 in0.0 mm 0.00 in0.0 mm
05:15 AM 38.0°F3.3°C 28.4°F-2.0°C 68% 2.0 mph SSE3.2 kmh SSE 6.0 mph9.7 kmh 29.96 in1014.6 mb 0.00 in0.0 mm 0.00 in0.0 mm 0.00 in0.0 mm
05:19 AM 38.0°F3.3°C 28.4°F-2.0°C 68% 5.0 mph SSE8.0 kmh SSE 10.0 mph16.1 kmh 29.95 in1014.2 mb 0.00 in0.0 mm 0.00 in0.0 mm 0.00 in0.0 mm
05:25 AM 37.9°F3.3°C 28.3°F-2.1°C 68% 5.0 mph S8.0 kmh S 8.0 mph12.9 kmh 29.95 in1014.2 mb 0.00 in0.0 mm 0.00 in0.0 mm 0.00 in0.0 mm
05:30 AM 37.7°F3.2°C 28.1°F-2.2°C 68% 4.0 mph SSE6.4 kmh SSE 7.0 mph11.3 kmh 29.95 in1014.2 mb 0.00 in0.0 mm 0.00 in0.0 mm 0.00 in0.0 mm
05:35 AM 37.7°F3.2°C 28.5°F-1.9°C 69% 4.0 mph SSE6.4 kmh SSE 6.0 mph9.7 kmh 29.94 in1013.9 mb 0.00 in0.0 mm 0.00 in0.0 mm 0.00 in0.0 mm
05:39 AM 37.6°F3.1°C 28.4°F-2.0°C 69% 3.0 mph SSE4.8 kmh SSE 6.0 mph9.7 kmh 29.94 in1013.9 mb 0.00 in0.0 mm 0.00 in0.0 mm 0.00 in0.0 mm
05:45 AM 37.5°F3.1°C 28.6°F-1.9°C 70% Calm Calm 4.0 mph6.4 kmh 29.94 in1013.9 mb 0.00 in0.0 mm 0.00 in0.0 mm 0.00 in0.0 mm
05:50 AM 37.4°F3.0°C 28.5°F-1.9°C 70% 4.0 mph SSE6.4 kmh SSE 4.0 mph6.4 kmh 29.94 in1013.9 mb 0.00 in0.0 mm 0.00 in0.0 mm 0.00 in0.0 mm
05:54 AM 37.2°F2.9°C 28.7°F-1.8°C 71% 1.0 mph SSE1.6 kmh SSE 6.0 mph9.7 kmh 29.93 in1013.5 mb 0.00 in0.0 mm 0.00 in0.0 mm 0.00 in0.0 mm
06:00 AM 37.1°F2.8°C 28.6°F-1.9°C 71% Calm Calm 3.0 mph4.8 kmh 29.93 in1013.5 mb 0.00 in0.0 mm 0.00 in0.0 mm 0.00 in0.0 mm
06:05 AM 37.0°F2.8°C 28.5°F-1.9°C 71% 5.0 mph S8.0 kmh S 5.0 mph8.0 kmh 29.93 in1013.5 mb 0.00 in0.0 mm 0.00 in0.0 mm 0.00 in0.0 mm
06:10 AM 37.0°F2.8°C 28.5°F-1.9°C 71% 2.0 mph SSE3.2 kmh SSE 9.0 mph14.5 kmh 29.93 in1013.5 mb 0.00 in0.0 mm 0.00 in0.0 mm 0.00 in0.0 mm
06:15 AM 37.0°F2.8°C 28.5°F-1.9°C 71% 1.0 mph S1.6 kmh S 6.0 mph9.7 kmh 29.93 in1013.5 mb 0.00 in0.0 mm 0.00 in0.0 mm 0.00 in0.0 mm
06:20 AM 36.9°F2.7°C 28.4°F-2.0°C 71% 5.0 mph S8.0 kmh S 5.0 mph8.0 kmh 29.93 in1013.5 mb 0.00 in0.0 mm 0.00 in0.0 mm 0.00 in0.0 mm
06:25 AM 36.8°F2.7°C 28.6°F-1.9°C 72% 1.0 mph S1.6 kmh S 5.0 mph8.0 kmh 29.92 in1013.2 mb 0.00 in0.0 mm 0.00 in0.0 mm 0.00 in0.0 mm
06:30 AM 36.8°F2.7°C 28.6°F-1.9°C 72% 4.0 mph S6.4 kmh S 6.0 mph9.7 kmh 29.92 in1013.2 mb 0.00 in0.0 mm 0.00 in0.0 mm 0.00 in0.0 mm
06:35 AM 36.7°F2.6°C 28.5°F-1.9°C 72% 1.0 mph S1.6 kmh S 5.0 mph8.0 kmh 29.92 in1013.2 mb 0.00 in0.0 mm 0.00 in0.0 mm 0.00 in0.0 mm
06:40 AM 36.6°F2.6°C 28.4°F-2.0°C 72% 3.0 mph SSE4.8 kmh SSE 6.0 mph9.7 kmh 29.92 in1013.2 mb 0.00 in0.0 mm 0.00 in0.0 mm 0.00 in0.0 mm
06:45 AM 36.4°F2.4°C 28.3°F-2.1°C 72% 3.0 mph SSE4.8 kmh SSE 7.0 mph11.3 kmh 29.92 in1013.2 mb 0.00 in0.0 mm 0.00 in0.0 mm 0.00 in0.0 mm
06:50 AM 36.2°F2.3°C 28.4°F-2.0°C 73% 3.0 mph SSE4.8 kmh SSE 6.0 mph9.7 kmh 29.92 in1013.2 mb 0.00 in0.0 mm 0.00 in0.0 mm 0.00 in0.0 mm
06:54 AM 36.0°F2.2°C 28.2°F-2.1°C 73% 3.0 mph SE4.8 kmh SE 6.0 mph9.7 kmh 29.92 in1013.2 mb 0.00 in0.0 mm 0.00 in0.0 mm 0.00 in0.0 mm
07:00 AM 36.0°F2.2°C 28.2°F-2.1°C 73% Calm Calm 6.0 mph9.7 kmh 29.92 in1013.2 mb 0.00 in0.0 mm 0.00 in0.0 mm 0.00 in0.0 mm
07:05 AM 36.0°F2.2°C 28.2°F-2.1°C 73% 4.0 mph S6.4 kmh S 5.0 mph8.0 kmh 29.92 in1013.2 mb 0.00 in0.0 mm 0.00 in0.0 mm 0.00 in0.0 mm
07:09 AM 36.1°F2.3°C 28.3°F-2.1°C 73% Calm Calm 2.0 mph3.2 kmh 29.92 in1013.2 mb 0.00 in0.0 mm 0.00 in0.0 mm 0.00 in0.0 mm
07:15 AM 36.0°F2.2°C 28.2°F-2.1°C 73% 2.0 mph SE3.2 kmh SE 4.0 mph6.4 kmh 29.91 in1012.9 mb 0.00 in0.0 mm 0.00 in0.0 mm 0.00 in0.0 mm
07:20 AM 36.0°F2.2°C 28.5°F-1.9°C 74% 1.0 mph SSE1.6 kmh SSE 5.0 mph8.0 kmh 29.92 in1013.2 mb 0.00 in0.0 mm 0.00 in0.0 mm 0.00 in0.0 mm
07:24 AM 36.1°F2.3°C 28.6°F-1.9°C 74% 1.0 mph SE1.6 kmh SE 2.0 mph3.2 kmh 29.91 in1012.9 mb 0.00 in0.0 mm 0.00 in0.0 mm 0.00 in0.0 mm
07:30 AM 36.1°F2.3°C 28.3°F-2.1°C 73% Calm Calm 4.0 mph6.4 kmh 29.91 in1012.9 mb 0.00 in0.0 mm 0.00 in0.0 mm 0.00 in0.0 mm
07:35 AM 36.2°F2.3°C 28.7°F-1.8°C 74% 4.0 mph SE6.4 kmh SE 5.0 mph8.0 kmh 29.91 in1012.9 mb 0.00 in0.0 mm 0.00 in0.0 mm 0.00 in0.0 mm
07:40 AM 36.2°F2.3°C 28.4°F-2.0°C 73% 2.0 mph SE3.2 kmh SE 4.0 mph6.4 kmh 29.91 in1012.9 mb 0.00 in0.0 mm 0.00 in0.0 mm 0.00 in0.0 mm
07:44 AM 36.3°F2.4°C 28.5°F-1.9°C 73% 2.0 mph S3.2 kmh S 5.0 mph8.0 kmh 29.91 in1012.9 mb 0.00 in0.0 mm 0.00 in0.0 mm 0.00 in0.0 mm
07:49 AM 36.5°F2.5°C 28.7°F-1.8°C 73% 3.0 mph SSE4.8 kmh SSE 6.0 mph9.7 kmh 29.91 in1012.9 mb 0.00 in0.0 mm 0.00 in0.0 mm 0.00 in0.0 mm
07:55 AM 36.7°F2.6°C 28.9°F-1.7°C 73% 1.0 mph SE1.6 kmh SE 5.0 mph8.0 kmh 29.91 in1012.9 mb 0.00 in0.0 mm 0.00 in0.0 mm 0.00 in0.0 mm
08:00 AM 36.8°F2.7°C 29.0°F-1.7°C 73% Calm Calm 3.0 mph4.8 kmh 29.91 in1012.9 mb 0.00 in0.0 mm 0.00 in0.0 mm 0.00 in0.0 mm
08:05 AM 36.9°F2.7°C 29.1°F-1.6°C 73% 3.0 mph SE4.8 kmh SE 4.0 mph6.4 kmh 29.90 in1012.5 mb 0.00 in0.0 mm 0.00 in0.0 mm 0.00 in0.0 mm
08:10 AM 37.1°F2.8°C 29.3°F-1.5°C 73% 5.0 mph S8.0 kmh S 7.0 mph11.3 kmh 29.90 in1012.5 mb 0.00 in0.0 mm 0.00 in0.0 mm 0.00 in0.0 mm
08:15 AM 37.1°F2.8°C 29.3°F-1.5°C 73% 1.0 mph SSE1.6 kmh SSE 5.0 mph8.0 kmh 29.90 in1012.5 mb 0.00 in0.0 mm 0.00 in0.0 mm 0.00 in0.0 mm
08:20 AM 37.1°F2.8°C 29.3°F-1.5°C 73% Calm Calm 4.0 mph6.4 kmh 29.89 in1012.2 mb 0.00 in0.0 mm 0.00 in0.0 mm 0.00 in0.0 mm
08:25 AM 37.1°F2.8°C 29.3°F-1.5°C 73% 3.0 mph SSE4.8 kmh SSE 5.0 mph8.0 kmh 29.89 in1012.2 mb 0.00 in0.0 mm 0.00 in0.0 mm 0.00 in0.0 mm
08:30 AM 37.1°F2.8°C 29.3°F-1.5°C 73% 3.0 mph SSE4.8 kmh SSE 4.0 mph6.4 kmh 29.89 in1012.2 mb 0.00 in0.0 mm 0.00 in0.0 mm 0.00 in0.0 mm
08:35 AM 37.1°F2.8°C 29.3°F-1.5°C 73% 1.0 mph S1.6 kmh S 6.0 mph9.7 kmh 29.89 in1012.2 mb 0.00 in0.0 mm 0.00 in0.0 mm 0.00 in0.0 mm
08:40 AM 37.1°F2.8°C 29.3°F-1.5°C 73% 1.0 mph SSE1.6 kmh SSE 5.0 mph8.0 kmh 29.89 in1012.2 mb 0.00 in0.0 mm 0.00 in0.0 mm 0.00 in0.0 mm
08:45 AM 37.2°F2.9°C 29.4°F-1.4°C 73% 1.0 mph SE1.6 kmh SE 4.0 mph6.4 kmh 29.89 in1012.2 mb 0.00 in0.0 mm 0.00 in0.0 mm 0.00 in0.0 mm
08:50 AM 37.2°F2.9°C 29.4°F-1.4°C 73% 4.0 mph S6.4 kmh S 5.0 mph8.0 kmh 29.88 in1011.9 mb 0.00 in0.0 mm 0.00 in0.0 mm 0.00 in0.0 mm
08:55 AM 37.3°F2.9°C 29.5°F-1.4°C 73% 1.0 mph SSE1.6 kmh SSE 6.0 mph9.7 kmh 29.88 in1011.9 mb 0.00 in0.0 mm 0.00 in0.0 mm 0.00 in0.0 mm
09:00 AM 37.3°F2.9°C 29.5°F-1.4°C 73% 2.0 mph SSE3.2 kmh SSE 7.0 mph11.3 kmh 29.87 in1011.5 mb 0.00 in0.0 mm 0.00 in0.0 mm 0.00 in0.0 mm
09:05 AM 37.5°F3.1°C 29.7°F-1.3°C 73% Calm Calm 5.0 mph8.0 kmh 29.87 in1011.5 mb 0.00 in0.0 mm 0.00 in0.0 mm 0.00 in0.0 mm
09:10 AM 37.7°F3.2°C 29.8°F-1.2°C 73% 1.0 mph S1.6 kmh S 5.0 mph8.0 kmh 29.87 in1011.5 mb 0.00 in0.0 mm 0.00 in0.0 mm 0.00 in0.0 mm
09:15 AM 37.8°F3.2°C 29.9°F-1.2°C 73% 8.0 mph S12.9 kmh S 8.0 mph12.9 kmh 29.87 in1011.5 mb 0.00 in0.0 mm 0.00 in0.0 mm 0.00 in0.0 mm
09:19 AM 37.8°F3.2°C 29.9°F-1.2°C 73% 3.0 mph SSE4.8 kmh SSE 5.0 mph8.0 kmh 29.87 in1011.5 mb 0.00 in0.0 mm 0.00 in0.0 mm 0.00 in0.0 mm
09:25 AM 37.9°F3.3°C 30.0°F-1.1°C 73% 3.0 mph SSE4.8 kmh SSE 4.0 mph6.4 kmh 29.87 in1011.5 mb 0.00 in0.0 mm 0.00 in0.0 mm 0.00 in0.0 mm
09:30 AM 38.0°F3.3°C 30.1°F-1.1°C 73% Calm Calm 5.0 mph8.0 kmh 29.87 in1011.5 mb 0.00 in0.0 mm 0.00 in0.0 mm 0.00 in0.0 mm
09:35 AM 38.1°F3.4°C 30.2°F-1.0°C 73% Calm Calm 4.0 mph6.4 kmh 29.87 in1011.5 mb 0.00 in0.0 mm 0.00 in0.0 mm 0.00 in0.0 mm
09:40 AM 38.2°F3.4°C 30.3°F-0.9°C 73% 4.0 mph S6.4 kmh S 4.0 mph6.4 kmh 29.88 in1011.9 mb 0.00 in0.0 mm 0.00 in0.0 mm 0.00 in0.0 mm
09:45 AM 38.2°F3.4°C 30.3°F-0.9°C 73% Calm Calm 3.0 mph4.8 kmh 29.88 in1011.9 mb 0.00 in0.0 mm 0.00 in0.0 mm 0.00 in0.0 mm
09:50 AM 38.3°F3.5°C 30.4°F-0.9°C 73% Calm Calm 5.0 mph8.0 kmh 29.87 in1011.5 mb 0.00 in0.0 mm 0.00 in0.0 mm 0.00 in0.0 mm
09:55 AM 38.4°F3.6°C 30.2°F-1.0°C 72% 2.0 mph SSE3.2 kmh SSE 5.0 mph8.0 kmh 29.87 in1011.5 mb 0.00 in0.0 mm 0.00 in0.0 mm 0.00 in0.0 mm
10:00 AM 38.6°F3.7°C 30.4°F-0.9°C 72% Calm Calm 4.0 mph6.4 kmh 29.87 in1011.5 mb 0.00 in0.0 mm 0.00 in0.0 mm 0.00 in0.0 mm
10:05 AM 38.7°F3.7°C 30.5°F-0.8°C 72% Calm Calm 4.0 mph6.4 kmh 29.87 in1011.5 mb 0.00 in0.0 mm 0.00 in0.0 mm 0.00 in0.0 mm
10:10 AM 38.9°F3.8°C 30.7°F-0.7°C 72% Calm Calm 5.0 mph8.0 kmh 29.86 in1011.2 mb 0.00 in0.0 mm 0.00 in0.0 mm 0.00 in0.0 mm
10:15 AM 39.1°F3.9°C 30.9°F-0.6°C 72% 3.0 mph S4.8 kmh S 11.0 mph17.7 kmh 29.86 in1011.2 mb 0.00 in0.0 mm 0.00 in0.0 mm 0.00 in0.0 mm
10:20 AM 39.3°F4.1°C 30.7°F-0.7°C 71% 5.0 mph S8.0 kmh S 7.0 mph11.3 kmh 29.86 in1011.2 mb 0.00 in0.0 mm 0.00 in0.0 mm 0.00 in0.0 mm
10:25 AM 39.5°F4.2°C 30.9°F-0.6°C 71% 6.0 mph SSE9.7 kmh SSE 7.0 mph11.3 kmh 29.86 in1011.2 mb 0.00 in0.0 mm 0.00 in0.0 mm 0.00 in0.0 mm
10:30 AM 39.7°F4.3°C 31.1°F-0.5°C 71% 4.0 mph S6.4 kmh S 7.0 mph11.3 kmh 29.85 in1010.8 mb 0.00 in0.0 mm 0.00 in0.0 mm 0.00 in0.0 mm
10:34 AM 39.8°F4.3°C 31.2°F-0.4°C 71% 6.0 mph SSE9.7 kmh SSE 9.0 mph14.5 kmh 29.85 in1010.8 mb 0.00 in0.0 mm 0.00 in0.0 mm 0.00 in0.0 mm
10:40 AM 40.1°F4.5°C 31.1°F-0.5°C 70% 4.0 mph S6.4 kmh S 7.0 mph11.3 kmh 29.85 in1010.8 mb 0.00 in0.0 mm 0.00 in0.0 mm 0.00 in0.0 mm
10:45 AM 40.2°F4.6°C 31.2°F-0.4°C 70% 5.0 mph S8.0 kmh S 5.0 mph8.0 kmh 29.85 in1010.8 mb 0.00 in0.0 mm 0.00 in0.0 mm 0.00 in0.0 mm
10:50 AM 40.4°F4.7°C 31.4°F-0.3°C 70% 2.0 mph S3.2 kmh S 6.0 mph9.7 kmh 29.85 in1010.8 mb 0.00 in0.0 mm 0.00 in0.0 mm 0.00 in0.0 mm
10:55 AM 40.6°F4.8°C 31.6°F-0.2°C 70% 5.0 mph S8.0 kmh S 8.0 mph12.9 kmh 29.85 in1010.8 mb 0.00 in0.0 mm 0.00 in0.0 mm 0.00 in0.0 mm
11:00 AM 40.7°F4.8°C 31.7°F-0.2°C 70% 5.0 mph SSE8.0 kmh SSE 7.0 mph11.3 kmh 29.85 in1010.8 mb 0.00 in0.0 mm 0.00 in0.0 mm 0.00 in0.0 mm
11:05 AM 40.9°F4.9°C 31.5°F-0.3°C 69% 3.0 mph SSE4.8 kmh SSE 8.0 mph12.9 kmh 29.84 in1010.5 mb 0.00 in0.0 mm 0.00 in0.0 mm 0.00 in0.0 mm
11:10 AM 41.1°F5.1°C 31.7°F-0.2°C 69% 6.0 mph S9.7 kmh S 9.0 mph14.5 kmh 29.83 in1010.2 mb 0.00 in0.0 mm 0.00 in0.0 mm 0.00 in0.0 mm
11:15 AM 41.4°F5.2°C 32.0°F0.0°C 69% 3.0 mph S4.8 kmh S 9.0 mph14.5 kmh 29.83 in1010.2 mb 0.00 in0.0 mm 0.00 in0.0 mm 0.00 in0.0 mm
11:20 AM 41.5°F5.3°C 32.1°F0.1°C 69% 4.0 mph S6.4 kmh S 8.0 mph12.9 kmh 29.83 in1010.2 mb 0.00 in0.0 mm 0.00 in0.0 mm 0.00 in0.0 mm
11:25 AM 41.7°F5.4°C 32.3°F0.2°C 69% 4.0 mph SSE6.4 kmh SSE 6.0 mph9.7 kmh 29.82 in1009.8 mb 0.00 in0.0 mm 0.00 in0.0 mm 0.00 in0.0 mm
11:30 AM 41.9°F5.5°C 32.1°F0.1°C 68% 6.0 mph SSE9.7 kmh SSE 10.0 mph16.1 kmh 29.83 in1010.2 mb 0.00 in0.0 mm 0.00 in0.0 mm 0.00 in0.0 mm
11:34 AM 42.0°F5.6°C 32.2°F0.1°C 68% 4.0 mph S6.4 kmh S 6.0 mph9.7 kmh 29.83 in1010.2 mb 0.00 in0.0 mm 0.00 in0.0 mm 0.00 in0.0 mm
11:40 AM 42.3°F5.7°C 32.5°F0.3°C 68% 7.0 mph S11.3 kmh S 9.0 mph14.5 kmh 29.82 in1009.8 mb 0.00 in0.0 mm 0.00 in0.0 mm 0.00 in0.0 mm
11:45 AM 42.4°F5.8°C 32.6°F0.3°C 68% 6.0 mph S9.7 kmh S 10.0 mph16.1 kmh 29.81 in1009.5 mb 0.00 in0.0 mm 0.00 in0.0 mm 0.00 in0.0 mm
11:50 AM 42.7°F5.9°C 32.5°F0.3°C 67% 7.0 mph SSE11.3 kmh SSE 10.0 mph16.1 kmh 29.81 in1009.5 mb 0.00 in0.0 mm 0.00 in0.0 mm 0.00 in0.0 mm
11:55 AM 43.1°F6.2°C 32.9°F0.5°C 67% 3.0 mph S4.8 kmh S 10.0 mph16.1 kmh 29.81 in1009.5 mb 0.00 in0.0 mm 0.00 in0.0 mm 0.00 in0.0 mm
12:00 PM 43.3°F6.3°C 33.1°F0.6°C 67% 5.0 mph SSE8.0 kmh SSE 8.0 mph12.9 kmh 29.81 in1009.5 mb 0.00 in0.0 mm 0.00 in0.0 mm 0.00 in0.0 mm
12:05 PM 43.4°F6.3°C 33.2°F0.7°C 67% 6.0 mph SE9.7 kmh SE 10.0 mph16.1 kmh 29.81 in1009.5 mb 0.00 in0.0 mm 0.00 in0.0 mm 0.00 in0.0 mm
12:10 PM 43.6°F6.4°C 33.0°F0.6°C 66% 6.0 mph SE9.7 kmh SE 10.0 mph16.1 kmh 29.81 in1009.5 mb 0.00 in0.0 mm 0.00 in0.0 mm 0.00 in0.0 mm
12:15 PM 43.7°F6.5°C 33.1°F0.6°C 66% 4.0 mph S6.4 kmh S 8.0 mph12.9 kmh 29.81 in1009.5 mb 0.00 in0.0 mm 0.00 in0.0 mm 0.00 in0.0 mm
12:19 PM 43.8°F6.6°C 33.2°F0.7°C 66% 5.0 mph SSE8.0 kmh SSE 8.0 mph12.9 kmh 29.81 in1009.5 mb 0.00 in0.0 mm 0.00 in0.0 mm 0.00 in0.0 mm
12:25 PM 44.0°F6.7°C 33.4°F0.8°C 66% 6.0 mph SSE9.7 kmh SSE 8.0 mph12.9 kmh 29.80 in1009.1 mb 0.00 in0.0 mm 0.00 in0.0 mm 0.00 in0.0 mm
12:30 PM 44.2°F6.8°C 33.2°F0.7°C 65% 5.0 mph S8.0 kmh S 9.0 mph14.5 kmh 29.80 in1009.1 mb 0.00 in0.0 mm 0.00 in0.0 mm 0.00 in0.0 mm
12:35 PM 44.3°F6.8°C 33.3°F0.7°C 65% 8.0 mph SSW12.9 kmh SSW 9.0 mph14.5 kmh 29.80 in1009.1 mb 0.00 in0.0 mm 0.00 in0.0 mm 0.00 in0.0 mm
12:40 PM 44.5°F6.9°C 33.5°F0.8°C 65% 5.0 mph SSE8.0 kmh SSE 9.0 mph14.5 kmh 29.79 in1008.8 mb 0.00 in0.0 mm 0.00 in0.0 mm 0.00 in0.0 mm
12:44 PM 44.6°F7.0°C 33.6°F0.9°C 65% 6.0 mph SSE9.7 kmh SSE 8.0 mph12.9 kmh 29.79 in1008.8 mb 0.00 in0.0 mm 0.00 in0.0 mm 0.00 in0.0 mm
12:49 PM 44.8°F7.1°C 33.8°F1.0°C 65% 9.0 mph S14.5 kmh S 9.0 mph14.5 kmh 29.79 in1008.8 mb 0.00 in0.0 mm 0.00 in0.0 mm 0.00 in0.0 mm
12:55 PM 44.9°F7.2°C 33.9°F1.1°C 65% 5.0 mph SSE8.0 kmh SSE 6.0 mph9.7 kmh 29.78 in1008.5 mb 0.00 in0.0 mm 0.00 in0.0 mm 0.00 in0.0 mm
01:00 PM 45.0°F7.2°C 34.0°F1.1°C 65% 5.0 mph SSW8.0 kmh SSW 7.0 mph11.3 kmh 29.78 in1008.5 mb 0.00 in0.0 mm 0.00 in0.0 mm 0.00 in0.0 mm
01:04 PM 45.2°F7.3°C 33.8°F1.0°C 64% 6.0 mph S9.7 kmh S 10.0 mph16.1 kmh 29.77 in1008.1 mb 0.00 in0.0 mm 0.00 in0.0 mm 0.00 in0.0 mm
01:10 PM 45.2°F7.3°C 33.8°F1.0°C 64% 6.0 mph SSE9.7 kmh SSE 10.0 mph16.1 kmh 29.78 in1008.5 mb 0.00 in0.0 mm 0.00 in0.0 mm 0.00 in0.0 mm
01:15 PM 45.2°F7.3°C 33.8°F1.0°C 64% 4.0 mph SSE6.4 kmh SSE 10.0 mph16.1 kmh 29.77 in1008.1 mb 0.00 in0.0 mm 0.00 in0.0 mm 0.00 in0.0 mm
01:20 PM 45.3°F7.4°C 34.2°F1.2°C 65% 7.0 mph SSE11.3 kmh SSE 8.0 mph12.9 kmh 29.77 in1008.1 mb 0.00 in0.0 mm 0.00 in0.0 mm 0.00 in0.0 mm
01:24 PM 45.5°F7.5°C 34.1°F1.2°C 64% 7.0 mph SSE11.3 kmh SSE 10.0 mph16.1 kmh 29.77 in1008.1 mb 0.00 in0.0 mm 0.00 in0.0 mm 0.00 in0.0 mm
01:30 PM 45.6°F7.6°C 34.1°F1.2°C 64% 9.0 mph S14.5 kmh S 10.0 mph16.1 kmh 29.77 in1008.1 mb 0.00 in0.0 mm 0.00 in0.0 mm 0.00 in0.0 mm
01:35 PM 45.8°F7.7°C 34.3°F1.3°C 64% 3.0 mph S4.8 kmh S 8.0 mph12.9 kmh 29.76 in1007.8 mb 0.00 in0.0 mm 0.00 in0.0 mm 0.00 in0.0 mm
01:40 PM 46.1°F7.8°C 34.6°F1.4°C 64% 2.0 mph SSE3.2 kmh SSE 11.0 mph17.7 kmh 29.75 in1007.5 mb 0.00 in0.0 mm 0.00 in0.0 mm 0.00 in0.0 mm
01:45 PM 46.3°F7.9°C 34.4°F1.3°C 63% 8.0 mph S12.9 kmh S 10.0 mph16.1 kmh 29.75 in1007.5 mb 0.00 in0.0 mm 0.00 in0.0 mm 0.00 in0.0 mm
01:50 PM 46.4°F8.0°C 34.5°F1.4°C 63% 5.0 mph S8.0 kmh S 9.0 mph14.5 kmh 29.74 in1007.1 mb 0.00 in0.0 mm 0.00 in0.0 mm 0.00 in0.0 mm
01:55 PM 46.5°F8.1°C 34.6°F1.4°C 63% 5.0 mph SE8.0 kmh SE 11.0 mph17.7 kmh 29.73 in1006.8 mb 0.00 in0.0 mm 0.00 in0.0 mm 0.00 in0.0 mm
01:59 PM 46.7°F8.2°C 34.8°F1.6°C 63% 4.0 mph SE6.4 kmh SE 14.0 mph22.5 kmh 29.73 in1006.8 mb 0.00 in0.0 mm 0.00 in0.0 mm 0.00 in0.0 mm
02:05 PM 47.0°F8.3°C 34.7°F1.5°C 62% 5.0 mph S8.0 kmh S 13.0 mph20.9 kmh 29.72 in1006.4 mb 0.00 in0.0 mm 0.00 in0.0 mm 0.00 in0.0 mm
02:10 PM 47.2°F8.4°C 34.9°F1.6°C 62% 8.0 mph SSW12.9 kmh SSW 12.0 mph19.3 kmh 29.72 in1006.4 mb 0.00 in0.0 mm 0.00 in0.0 mm 0.00 in0.0 mm
02:15 PM 47.5°F8.6°C 34.7°F1.5°C 61% 9.0 mph S14.5 kmh S 12.0 mph19.3 kmh 29.71 in1006.1 mb 0.00 in0.0 mm 0.00 in0.0 mm 0.00 in0.0 mm
02:18 PM 47.6°F8.7°C 35.2°F1.8°C 62% 5.0 mph S8.0 kmh S 9.0 mph14.5 kmh 29.71 in1006.1 mb 0.00 in0.0 mm 0.00 in0.0 mm 0.00 in0.0 mm
02:25 PM 48.0°F8.9°C 35.2°F1.8°C 61% 6.0 mph SSW9.7 kmh SSW 12.0 mph19.3 kmh 29.70 in1005.8 mb 0.00 in0.0 mm 0.00 in0.0 mm 0.00 in0.0 mm
02:30 PM 48.6°F9.2°C 35.4°F1.9°C 60% 4.0 mph S6.4 kmh S 9.0 mph14.5 kmh 29.70 in1005.8 mb 0.00 in0.0 mm 0.00 in0.0 mm 0.00 in0.0 mm
02:35 PM 49.2°F9.6°C 35.5°F1.9°C 59% 5.0 mph S8.0 kmh S 9.0 mph14.5 kmh 29.69 in1005.4 mb 0.00 in0.0 mm 0.00 in0.0 mm 0.00 in0.0 mm
02:40 PM 49.4°F9.7°C 35.3°F1.8°C 58% 9.0 mph SSW14.5 kmh SSW 12.0 mph19.3 kmh 29.68 in1005.1 mb 0.00 in0.0 mm 0.00 in0.0 mm 0.00 in0.0 mm
02:44 PM 49.4°F9.7°C 34.8°F1.6°C 57% 10.0 mph S16.1 kmh S 17.0 mph27.4 kmh 29.68 in1005.1 mb 0.00 in0.0 mm 0.00 in0.0 mm 0.00 in0.0 mm
02:49 PM 49.6°F9.8°C 35.0°F1.7°C 57% 8.0 mph WSW12.9 kmh WSW 11.0 mph17.7 kmh 29.68 in1005.1 mb 0.00 in0.0 mm 0.00 in0.0 mm 0.00 in0.0 mm
02:55 PM 49.6°F9.8°C 35.0°F1.7°C 57% 4.0 mph SW6.4 kmh SW 14.0 mph22.5 kmh 29.68 in1005.1 mb 0.00 in0.0 mm 0.00 in0.0 mm 0.00 in0.0 mm
03:00 PM 49.5°F9.7°C 34.9°F1.6°C 57% 5.0 mph SSW8.0 kmh SSW 10.0 mph16.1 kmh 29.68 in1005.1 mb 0.00 in0.0 mm 0.00 in0.0 mm 0.00 in0.0 mm
03:05 PM 49.6°F9.8°C 34.6°F1.4°C 56% 7.0 mph S11.3 kmh S 12.0 mph19.3 kmh 29.67 in1004.7 mb 0.00 in0.0 mm 0.00 in0.0 mm 0.00 in0.0 mm
03:10 PM 49.6°F9.8°C 34.6°F1.4°C 56% 6.0 mph S9.7 kmh S 11.0 mph17.7 kmh 29.67 in1004.7 mb 0.00 in0.0 mm 0.00 in0.0 mm 0.00 in0.0 mm
03:15 PM 49.8°F9.9°C 35.2°F1.8°C 57% 7.0 mph SSE11.3 kmh SSE 10.0 mph16.1 kmh 29.67 in1004.7 mb 0.00 in0.0 mm 0.00 in0.0 mm 0.00 in0.0 mm
03:20 PM 50.1°F10.1°C 35.5°F1.9°C 57% 7.0 mph SSE11.3 kmh SSE 9.0 mph14.5 kmh 29.67 in1004.7 mb 0.00 in0.0 mm 0.00 in0.0 mm 0.00 in0.0 mm
03:25 PM 50.1°F10.1°C 35.0°F1.7°C 56% 5.0 mph S8.0 kmh S 12.0 mph19.3 kmh 29.67 in1004.7 mb 0.00 in0.0 mm 0.00 in0.0 mm 0.00 in0.0 mm
03:30 PM 50.2°F10.1°C 35.1°F1.7°C 56% 4.0 mph SSW6.4 kmh SSW 10.0 mph16.1 kmh 29.66 in1004.4 mb 0.00 in0.0 mm 0.00 in0.0 mm 0.00 in0.0 mm
03:34 PM 50.5°F10.3°C 35.9°F2.2°C 57% 5.0 mph S8.0 kmh S 6.0 mph9.7 kmh 29.67 in1004.7 mb 0.00 in0.0 mm 0.00 in0.0 mm 0.00 in0.0 mm
03:40 PM 50.6°F10.3°C 35.5°F1.9°C 56% 3.0 mph S4.8 kmh S 11.0 mph17.7 kmh 29.67 in1004.7 mb 0.00 in0.0 mm 0.00 in0.0 mm 0.00 in0.0 mm
03:45 PM 50.8°F10.4°C 35.7°F2.1°C 56% 7.0 mph SW11.3 kmh SW 11.0 mph17.7 kmh 29.66 in1004.4 mb 0.00 in0.0 mm 0.00 in0.0 mm 0.00 in0.0 mm
03:50 PM 51.2°F10.7°C 36.1°F2.3°C 56% 6.0 mph SW9.7 kmh SW 6.0 mph9.7 kmh 29.66 in1004.4 mb 0.00 in0.0 mm 0.00 in0.0 mm 0.00 in0.0 mm
03:55 PM 51.5°F10.8°C 35.9°F2.2°C 55% 3.0 mph S4.8 kmh S 8.0 mph12.9 kmh 29.66 in1004.4 mb 0.00 in0.0 mm 0.00 in0.0 mm 0.00 in0.0 mm
04:00 PM 51.9°F11.1°C 35.8°F2.1°C 54% 3.0 mph S4.8 kmh S 9.0 mph14.5 kmh 29.65 in1004.1 mb 0.00 in0.0 mm 0.00 in0.0 mm 0.00 in0.0 mm
04:05 PM 52.2°F11.2°C 36.1°F2.3°C 54% 4.0 mph S6.4 kmh S 10.0 mph16.1 kmh 29.65 in1004.1 mb 0.00 in0.0 mm 0.00 in0.0 mm 0.00 in0.0 mm
04:10 PM 52.2°F11.2°C 36.1°F2.3°C 54% 4.0 mph S6.4 kmh S 12.0 mph19.3 kmh 29.65 in1004.1 mb 0.00 in0.0 mm 0.00 in0.0 mm 0.00 in0.0 mm
04:15 PM 52.3°F11.3°C 36.6°F2.6°C 55% 5.0 mph SW8.0 kmh SW 8.0 mph12.9 kmh 29.65 in1004.1 mb 0.00 in0.0 mm 0.00 in0.0 mm 0.00 in0.0 mm
04:20 PM 52.6°F11.4°C 36.9°F2.7°C 55% 5.0 mph SW8.0 kmh SW 9.0 mph14.5 kmh 29.65 in1004.1 mb 0.00 in0.0 mm 0.00 in0.0 mm 0.00 in0.0 mm
04:25 PM 52.7°F11.5°C 36.5°F2.5°C 54% 3.0 mph S4.8 kmh S 12.0 mph19.3 kmh 29.64 in1003.7 mb 0.00 in0.0 mm 0.00 in0.0 mm 0.00 in0.0 mm
04:30 PM 52.8°F11.6°C 37.1°F2.8°C 55% 7.0 mph SW11.3 kmh SW 10.0 mph16.1 kmh 29.64 in1003.7 mb 0.00 in0.0 mm 0.00 in0.0 mm 0.00 in0.0 mm
04:34 PM 53.0°F11.7°C 36.8°F2.7°C 54% 8.0 mph WSW12.9 kmh WSW 14.0 mph22.5 kmh 29.64 in1003.7 mb 0.00 in0.0 mm 0.00 in0.0 mm 0.00 in0.0 mm
04:40 PM 53.4°F11.9°C 37.7°F3.2°C 55% 7.0 mph S11.3 kmh S 7.0 mph11.3 kmh 29.64 in1003.7 mb 0.00 in0.0 mm 0.00 in0.0 mm 0.00 in0.0 mm
04:45 PM 54.0°F12.2°C 37.8°F3.2°C 54% 4.0 mph S6.4 kmh S 12.0 mph19.3 kmh 29.63 in1003.4 mb 0.00 in0.0 mm 0.00 in0.0 mm 0.00 in0.0 mm
04:50 PM 54.3°F12.4°C 38.0°F3.3°C 54% 5.0 mph SW8.0 kmh SW 9.0 mph14.5 kmh 29.63 in1003.4 mb 0.00 in0.0 mm 0.00 in0.0 mm 0.00 in0.0 mm
04:55 PM 54.5°F12.5°C 38.2°F3.4°C 54% 7.0 mph SW11.3 kmh SW 11.0 mph17.7 kmh 29.63 in1003.4 mb 0.00 in0.0 mm 0.00 in0.0 mm 0.00 in0.0 mm
05:00 PM 54.5°F12.5°C 38.2°F3.4°C 54% 7.0 mph SW11.3 kmh SW 10.0 mph16.1 kmh 29.63 in1003.4 mb 0.00 in0.0 mm 0.00 in0.0 mm 0.00 in0.0 mm
05:04 PM 54.6°F12.6°C 38.3°F3.5°C 54% 2.0 mph S3.2 kmh S 9.0 mph14.5 kmh 29.63 in1003.4 mb 0.00 in0.0 mm 0.00 in0.0 mm 0.00 in0.0 mm
05:10 PM 54.9°F12.7°C 38.6°F3.7°C 54% 5.0 mph SW8.0 kmh SW 12.0 mph19.3 kmh 29.63 in1003.4 mb 0.00 in0.0 mm 0.00 in0.0 mm 0.00 in0.0 mm
05:15 PM 54.8°F12.7°C 38.5°F3.6°C 54% 6.0 mph SW9.7 kmh SW 15.0 mph24.1 kmh 29.63 in1003.4 mb 0.00 in0.0 mm 0.00 in0.0 mm 0.00 in0.0 mm
05:20 PM 54.8°F12.7°C 38.5°F3.6°C 54% 6.0 mph SW9.7 kmh SW 14.0 mph22.5 kmh 29.64 in1003.7 mb 0.00 in0.0 mm 0.00 in0.0 mm 0.00 in0.0 mm
05:25 PM 54.6°F12.6°C 38.8°F3.8°C 55% 8.0 mph SW12.9 kmh SW 14.0 mph22.5 kmh 29.63 in1003.4 mb 0.00 in0.0 mm 0.00 in0.0 mm 0.00 in0.0 mm
05:29 PM 54.4°F12.4°C 38.6°F3.7°C 55% 7.0 mph SW11.3 kmh SW 13.0 mph20.9 kmh 29.63 in1003.4 mb 0.00 in0.0 mm 0.00 in0.0 mm 0.00 in0.0 mm
05:35 PM 54.3°F12.4°C 39.0°F3.9°C 56% 5.0 mph SW8.0 kmh SW 9.0 mph14.5 kmh 29.63 in1003.4 mb 0.00 in0.0 mm 0.00 in0.0 mm 0.00 in0.0 mm
05:40 PM 54.2°F12.3°C 39.3°F4.1°C 57% 6.0 mph SW9.7 kmh SW 11.0 mph17.7 kmh 29.63 in1003.4 mb 0.00 in0.0 mm 0.00 in0.0 mm 0.00 in0.0 mm
05:45 PM 54.1°F12.3°C 39.7°F4.3°C 58% 8.0 mph SW12.9 kmh SW 12.0 mph19.3 kmh 29.63 in1003.4 mb 0.00 in0.0 mm 0.00 in0.0 mm 0.00 in0.0 mm
05:50 PM 54.1°F12.3°C 40.1°F4.5°C 59% 9.0 mph SW14.5 kmh SW 15.0 mph24.1 kmh 29.63 in1003.4 mb 0.00 in0.0 mm 0.00 in0.0 mm 0.00 in0.0 mm
05:55 PM 54.0°F12.2°C 40.4°F4.7°C 60% 6.0 mph SW9.7 kmh SW 15.0 mph24.1 kmh 29.63 in1003.4 mb 0.00 in0.0 mm 0.00 in0.0 mm 0.00 in0.0 mm
06:00 PM 54.0°F12.2°C 40.4°F4.7°C 60% 7.0 mph SW11.3 kmh SW 9.0 mph14.5 kmh 29.62 in1003.0 mb 0.00 in0.0 mm 0.00 in0.0 mm 0.00 in0.0 mm
06:04 PM 54.0°F12.2°C 40.9°F4.9°C 61% 21.0 mph WSW33.8 kmh WSW 21.0 mph33.8 kmh 29.62 in1003.0 mb 0.00 in0.0 mm 0.00 in0.0 mm 0.00 in0.0 mm
06:10 PM 53.9°F12.2°C 40.8°F4.9°C 61% 7.0 mph SW11.3 kmh SW 14.0 mph22.5 kmh 29.62 in1003.0 mb 0.00 in0.0 mm 0.00 in0.0 mm 0.00 in0.0 mm
06:15 PM 53.9°F12.2°C 41.2°F5.1°C 62% 8.0 mph S12.9 kmh S 21.0 mph33.8 kmh 29.62 in1003.0 mb 0.00 in0.0 mm 0.00 in0.0 mm 0.00 in0.0 mm
06:19 PM 53.9°F12.2°C 41.2°F5.1°C 62% 5.0 mph SSW8.0 kmh SSW 23.0 mph37.0 kmh 29.62 in1003.0 mb 0.00 in0.0 mm 0.00 in0.0 mm 0.00 in0.0 mm
06:24 PM 53.8°F12.1°C 41.1°F5.1°C 62% 11.0 mph WSW17.7 kmh WSW 14.0 mph22.5 kmh 29.62 in1003.0 mb 0.00 in0.0 mm 0.00 in0.0 mm 0.00 in0.0 mm
06:30 PM 53.6°F12.0°C 40.9°F4.9°C 62% 9.0 mph SW14.5 kmh SW 14.0 mph22.5 kmh 29.62 in1003.0 mb 0.00 in0.0 mm 0.00 in0.0 mm 0.00 in0.0 mm
06:35 PM 53.6°F12.0°C 40.9°F4.9°C 62% 4.0 mph SW6.4 kmh SW 14.0 mph22.5 kmh 29.62 in1003.0 mb 0.00 in0.0 mm 0.00 in0.0 mm 0.00 in0.0 mm
06:40 PM 53.5°F11.9°C 41.2°F5.1°C 63% 7.0 mph SW11.3 kmh SW 14.0 mph22.5 kmh 29.62 in1003.0 mb 0.00 in0.0 mm 0.00 in0.0 mm 0.00 in0.0 mm
06:45 PM 53.5°F11.9°C 41.2°F5.1°C 63% 13.0 mph SW20.9 kmh SW 18.0 mph29.0 kmh 29.62 in1003.0 mb 0.00 in0.0 mm 0.00 in0.0 mm 0.00 in0.0 mm
06:49 PM 53.6°F12.0°C 41.3°F5.2°C 63% 9.0 mph SW14.5 kmh SW 14.0 mph22.5 kmh 29.62 in1003.0 mb 0.00 in0.0 mm 0.00 in0.0 mm 0.00 in0.0 mm
06:55 PM 53.4°F11.9°C 41.5°F5.3°C 64% 7.0 mph SW11.3 kmh SW 15.0 mph24.1 kmh 29.63 in1003.4 mb 0.00 in0.0 mm 0.00 in0.0 mm 0.00 in0.0 mm
06:59 PM 53.4°F11.9°C 41.5°F5.3°C 64% 8.0 mph WSW12.9 kmh WSW 19.0 mph30.6 kmh 29.62 in1003.0 mb 0.00 in0.0 mm 0.00 in0.0 mm 0.00 in0.0 mm
07:04 PM 53.3°F11.8°C 41.9°F5.5°C 65% 4.0 mph SSW6.4 kmh SSW 13.0 mph20.9 kmh 29.62 in1003.0 mb 0.00 in0.0 mm 0.00 in0.0 mm 0.00 in0.0 mm
07:10 PM 53.1°F11.7°C 41.7°F5.4°C 65% 8.0 mph WSW12.9 kmh WSW 10.0 mph16.1 kmh 29.63 in1003.4 mb 0.00 in0.0 mm 0.00 in0.0 mm 0.00 in0.0 mm
07:15 PM 53.1°F11.7°C 42.1°F5.6°C 66% 9.0 mph SW14.5 kmh SW 17.0 mph27.4 kmh 29.62 in1003.0 mb 0.00 in0.0 mm 0.00 in0.0 mm 0.00 in0.0 mm
07:19 PM 53.0°F11.7°C 42.0°F5.6°C 66% 10.0 mph SW16.1 kmh SW 20.0 mph32.2 kmh 29.62 in1003.0 mb 0.00 in0.0 mm 0.00 in0.0 mm 0.00 in0.0 mm
07:25 PM 52.9°F11.6°C 41.9°F5.5°C 66% 8.0 mph WSW12.9 kmh WSW 13.0 mph20.9 kmh 29.62 in1003.0 mb 0.00 in0.0 mm 0.00 in0.0 mm 0.00 in0.0 mm
07:30 PM 52.8°F11.6°C 42.2°F5.7°C 67% 6.0 mph SW9.7 kmh SW 11.0 mph17.7 kmh 29.63 in1003.4 mb 0.00 in0.0 mm 0.00 in0.0 mm 0.00 in0.0 mm
07:35 PM 52.8°F11.6°C 42.2°F5.7°C 67% 14.0 mph SW22.5 kmh SW 20.0 mph32.2 kmh 29.63 in1003.4 mb 0.00 in0.0 mm 0.00 in0.0 mm 0.00 in0.0 mm
07:40 PM 52.8°F11.6°C 42.2°F5.7°C 67% 7.0 mph SW11.3 kmh SW 16.0 mph25.7 kmh 29.63 in1003.4 mb 0.00 in0.0 mm 0.00 in0.0 mm 0.00 in0.0 mm
07:45 PM 52.5°F11.4°C 42.3°F5.7°C 68% 6.0 mph SW9.7 kmh SW 12.0 mph19.3 kmh 29.63 in1003.4 mb 0.00 in0.0 mm 0.00 in0.0 mm 0.00 in0.0 mm
07:50 PM 52.4°F11.3°C 42.2°F5.7°C 68% 7.0 mph SW11.3 kmh SW 16.0 mph25.7 kmh 29.63 in1003.4 mb 0.00 in0.0 mm 0.00 in0.0 mm 0.00 in0.0 mm
07:54 PM 52.3°F11.3°C 42.1°F5.6°C 68% 10.0 mph SW16.1 kmh SW 13.0 mph20.9 kmh 29.63 in1003.4 mb 0.00 in0.0 mm 0.00 in0.0 mm 0.00 in0.0 mm
08:00 PM 52.3°F11.3°C 42.5°F5.8°C 69% 11.0 mph SW17.7 kmh SW 13.0 mph20.9 kmh 29.64 in1003.7 mb 0.00 in0.0 mm 0.00 in0.0 mm 0.00 in0.0 mm
08:05 PM 52.2°F11.2°C 42.7°F5.9°C 70% 4.0 mph SW6.4 kmh SW 18.0 mph29.0 kmh 29.64 in1003.7 mb 0.00 in0.0 mm 0.00 in0.0 mm 0.00 in0.0 mm
08:10 PM 52.1°F11.2°C 42.6°F5.9°C 70% 10.0 mph SW16.1 kmh SW 17.0 mph27.4 kmh 29.64 in1003.7 mb 0.00 in0.0 mm 0.00 in0.0 mm 0.00 in0.0 mm
08:15 PM 52.0°F11.1°C 42.9°F6.1°C 71% 6.0 mph SW9.7 kmh SW 11.0 mph17.7 kmh 29.64 in1003.7 mb 0.00 in0.0 mm 0.00 in0.0 mm 0.00 in0.0 mm
08:20 PM 51.7°F10.9°C 42.6°F5.9°C 71% 8.0 mph SW12.9 kmh SW 10.0 mph16.1 kmh 29.64 in1003.7 mb 0.00 in0.0 mm 0.00 in0.0 mm 0.00 in0.0 mm
08:25 PM 51.6°F10.9°C 42.9°F6.1°C 72% 9.0 mph SW14.5 kmh SW 14.0 mph22.5 kmh 29.64 in1003.7 mb 0.00 in0.0 mm 0.00 in0.0 mm 0.00 in0.0 mm
08:30 PM 51.5°F10.8°C 43.1°F6.2°C 73% 6.0 mph SSW9.7 kmh SSW 11.0 mph17.7 kmh 29.64 in1003.7 mb 0.00 in0.0 mm 0.00 in0.0 mm 0.00 in0.0 mm
08:35 PM 51.4°F10.8°C 43.1°F6.2°C 73% 9.0 mph SW14.5 kmh SW 13.0 mph20.9 kmh 29.64 in1003.7 mb 0.00 in0.0 mm 0.00 in0.0 mm 0.00 in0.0 mm
08:39 PM 51.3°F10.7°C 43.0°F6.1°C 73% 4.0 mph SW6.4 kmh SW 8.0 mph12.9 kmh 29.64 in1003.7 mb 0.00 in0.0 mm 0.00 in0.0 mm 0.00 in0.0 mm
08:45 PM 51.3°F10.7°C 43.0°F6.1°C 73% 2.0 mph SW3.2 kmh SW 10.0 mph16.1 kmh 29.64 in1003.7 mb 0.00 in0.0 mm 0.00 in0.0 mm 0.00 in0.0 mm
08:49 PM 51.3°F10.7°C 43.0°F6.1°C 73% 5.0 mph SW8.0 kmh SW 9.0 mph14.5 kmh 29.64 in1003.7 mb 0.00 in0.0 mm 0.00 in0.0 mm 0.00 in0.0 mm
08:55 PM 51.3°F10.7°C 43.0°F6.1°C 73% 5.0 mph SW8.0 kmh SW 10.0 mph16.1 kmh 29.64 in1003.7 mb 0.00 in0.0 mm 0.00 in0.0 mm 0.00 in0.0 mm
09:00 PM 51.2°F10.7°C 42.9°F6.1°C 73% 4.0 mph SW6.4 kmh SW 9.0 mph14.5 kmh 29.64 in1003.7 mb 0.00 in0.0 mm 0.00 in0.0 mm 0.00 in0.0 mm
09:05 PM 51.2°F10.7°C 42.9°F6.1°C 73% 7.0 mph W11.3 kmh W 12.0 mph19.3 kmh 29.64 in1003.7 mb 0.00 in0.0 mm 0.00 in0.0 mm 0.00 in0.0 mm
09:10 PM 51.1°F10.6°C 42.8°F6.0°C 73% 2.0 mph SW3.2 kmh SW 10.0 mph16.1 kmh 29.64 in1003.7 mb 0.00 in0.0 mm 0.00 in0.0 mm 0.00 in0.0 mm
09:15 PM 51.0°F10.6°C 42.7°F5.9°C 73% 3.0 mph SW4.8 kmh SW 10.0 mph16.1 kmh 29.64 in1003.7 mb 0.00 in0.0 mm 0.00 in0.0 mm 0.00 in0.0 mm
09:19 PM 50.8°F10.4°C 42.5°F5.8°C 73% 4.0 mph SW6.4 kmh SW 11.0 mph17.7 kmh 29.64 in1003.7 mb 0.00 in0.0 mm 0.00 in0.0 mm 0.00 in0.0 mm
09:25 PM 50.8°F10.4°C 42.8°F6.0°C 74% 3.0 mph WSW4.8 kmh WSW 8.0 mph12.9 kmh 29.64 in1003.7 mb 0.00 in0.0 mm 0.00 in0.0 mm 0.00 in0.0 mm
09:30 PM 50.7°F10.4°C 42.7°F5.9°C 74% 9.0 mph SW14.5 kmh SW 13.0 mph20.9 kmh 29.64 in1003.7 mb 0.00 in0.0 mm 0.00 in0.0 mm 0.00 in0.0 mm
09:34 PM 50.8°F10.4°C 42.8°F6.0°C 74% 10.0 mph SW16.1 kmh SW 11.0 mph17.7 kmh 29.64 in1003.7 mb 0.00 in0.0 mm 0.00 in0.0 mm 0.00 in0.0 mm
09:40 PM 50.7°F10.4°C 43.1°F6.2°C 75% 6.0 mph SW9.7 kmh SW 7.0 mph11.3 kmh 29.64 in1003.7 mb 0.00 in0.0 mm 0.00 in0.0 mm 0.00 in0.0 mm
09:45 PM 50.7°F10.4°C 43.1°F6.2°C 75% 8.0 mph WSW12.9 kmh WSW 10.0 mph16.1 kmh 29.64 in1003.7 mb 0.00 in0.0 mm 0.00 in0.0 mm 0.00 in0.0 mm
09:50 PM 50.7°F10.4°C 43.1°F6.2°C 75% 5.0 mph SW8.0 kmh SW 11.0 mph17.7 kmh 29.64 in1003.7 mb 0.00 in0.0 mm 0.00 in0.0 mm 0.00 in0.0 mm
09:55 PM 50.7°F10.4°C 43.4°F6.3°C 76% 7.0 mph SW11.3 kmh SW 11.0 mph17.7 kmh 29.64 in1003.7 mb 0.00 in0.0 mm 0.00 in0.0 mm 0.00 in0.0 mm
10:00 PM 50.8°F10.4°C 43.5°F6.4°C 76% 10.0 mph SW16.1 kmh SW 14.0 mph22.5 kmh 29.64 in1003.7 mb 0.00 in0.0 mm 0.00 in0.0 mm 0.00 in0.0 mm
10:05 PM 50.7°F10.4°C 43.8°F6.6°C 77% 8.0 mph SW12.9 kmh SW 11.0 mph17.7 kmh 29.64 in1003.7 mb 0.00 in0.0 mm 0.00 in0.0 mm 0.00 in0.0 mm
10:10 PM 50.6°F10.3°C 43.7°F6.5°C 77% 5.0 mph SW8.0 kmh SW 11.0 mph17.7 kmh 29.64 in1003.7 mb 0.00 in0.0 mm 0.00 in0.0 mm 0.00 in0.0 mm
10:15 PM 50.7°F10.4°C 43.8°F6.6°C 77% 9.0 mph WSW14.5 kmh WSW 14.0 mph22.5 kmh 29.64 in1003.7 mb 0.00 in0.0 mm 0.00 in0.0 mm 0.00 in0.0 mm
10:20 PM 50.7°F10.4°C 43.8°F6.6°C 77% 9.0 mph SW14.5 kmh SW 11.0 mph17.7 kmh 29.64 in1003.7 mb 0.00 in0.0 mm 0.00 in0.0 mm 0.00 in0.0 mm
10:25 PM 50.6°F10.3°C 43.7°F6.5°C 77% 4.0 mph SW6.4 kmh SW 13.0 mph20.9 kmh 29.64 in1003.7 mb 0.00 in0.0 mm 0.00 in0.0 mm 0.00 in0.0 mm
10:30 PM 50.6°F10.3°C 43.7°F6.5°C 77% 9.0 mph SW14.5 kmh SW 11.0 mph17.7 kmh 29.63 in1003.4 mb 0.00 in0.0 mm 0.00 in0.0 mm 0.00 in0.0 mm
10:35 PM 50.6°F10.3°C 43.7°F6.5°C 77% 7.0 mph SW11.3 kmh SW 12.0 mph19.3 kmh 29.63 in1003.4 mb 0.00 in0.0 mm 0.00 in0.0 mm 0.00 in0.0 mm
10:40 PM 50.7°F10.4°C 44.1°F6.7°C 78% 7.0 mph SW11.3 kmh SW 9.0 mph14.5 kmh 29.63 in1003.4 mb 0.00 in0.0 mm 0.00 in0.0 mm 0.00 in0.0 mm
10:44 PM 50.8°F10.4°C 44.2°F6.8°C 78% 6.0 mph WSW9.7 kmh WSW 10.0 mph16.1 kmh 29.63 in1003.4 mb 0.00 in0.0 mm 0.00 in0.0 mm 0.00 in0.0 mm
10:50 PM 50.8°F10.4°C 44.2°F6.8°C 78% 5.0 mph SW8.0 kmh SW 12.0 mph19.3 kmh 29.63 in1003.4 mb 0.00 in0.0 mm 0.00 in0.0 mm 0.00 in0.0 mm
10:55 PM 51.0°F10.6°C 44.4°F6.9°C 78% 7.0 mph SW11.3 kmh SW 16.0 mph25.7 kmh 29.63 in1003.4 mb 0.00 in0.0 mm 0.00 in0.0 mm 0.00 in0.0 mm
11:00 PM 51.1°F10.6°C 44.5°F6.9°C 78% 7.0 mph SW11.3 kmh SW 11.0 mph17.7 kmh 29.63 in1003.4 mb 0.00 in0.0 mm 0.00 in0.0 mm 0.00 in0.0 mm
11:05 PM 51.2°F10.7°C 44.9°F7.2°C 79% 3.0 mph SW4.8 kmh SW 12.0 mph19.3 kmh 29.63 in1003.4 mb 0.00 in0.0 mm 0.00 in0.0 mm 0.00 in0.0 mm
11:10 PM 51.2°F10.7°C 44.9°F7.2°C 79% 8.0 mph SW12.9 kmh SW 12.0 mph19.3 kmh 29.62 in1003.0 mb 0.00 in0.0 mm 0.00 in0.0 mm 0.00 in0.0 mm
11:14 PM 51.2°F10.7°C 44.9°F7.2°C 79% 10.0 mph WSW16.1 kmh WSW 14.0 mph22.5 kmh 29.63 in1003.4 mb 0.00 in0.0 mm 0.00 in0.0 mm 0.00 in0.0 mm
11:20 PM 51.2°F10.7°C 44.9°F7.2°C 79% 6.0 mph SW9.7 kmh SW 13.0 mph20.9 kmh 29.62 in1003.0 mb 0.00 in0.0 mm 0.00 in0.0 mm 0.00 in0.0 mm
11:25 PM 51.2°F10.7°C 44.9°F7.2°C 79% 8.0 mph SW12.9 kmh SW 10.0 mph16.1 kmh 29.62 in1003.0 mb 0.00 in0.0 mm 0.00 in0.0 mm 0.00 in0.0 mm
11:30 PM 51.3°F10.7°C 45.4°F7.4°C 80% 6.0 mph SW9.7 kmh SW 16.0 mph25.7 kmh 29.62 in1003.0 mb 0.00 in0.0 mm 0.00 in0.0 mm 0.00 in0.0 mm
11:35 PM 51.2°F10.7°C 45.3°F7.4°C 80% 4.0 mph WSW6.4 kmh WSW 13.0 mph20.9 kmh 29.62 in1003.0 mb 0.00 in0.0 mm 0.00 in0.0 mm 0.00 in0.0 mm
11:40 PM 51.2°F10.7°C 45.3°F7.4°C 80% 7.0 mph SW11.3 kmh SW 13.0 mph20.9 kmh 29.63 in1003.4 mb 0.00 in0.0 mm 0.00 in0.0 mm 0.00 in0.0 mm
11:45 PM 51.3°F10.7°C 45.4°F7.4°C 80% 7.0 mph SW11.3 kmh SW 14.0 mph22.5 kmh 29.63 in1003.4 mb 0.00 in0.0 mm 0.00 in0.0 mm 0.00 in0.0 mm
11:50 PM 51.2°F10.7°C 45.3°F7.4°C 80% 10.0 mph SW16.1 kmh SW 12.0 mph19.3 kmh 29.63 in1003.4 mb 0.00 in0.0 mm 0.00 in0.0 mm 0.00 in0.0 mm
11:55 PM 51.2°F10.7°C 45.3°F7.4°C 80% 8.0 mph SW12.9 kmh SW 11.0 mph17.7 kmh 29.64 in1003.7 mb 0.00 in0.0 mm 0.00 in0.0 mm 0.00 in0.0 mm